DUGK1: Little Walnut Rvr nr Bois d'Arc KS

Data processed at Wed May 22 2019 23:50


All information presented herein is the property of the government of the United States of America and may be revised or deleted at any time without prior notice.
Dissemination of this information without the expressed written consent of the Public Affairs Office, Tulsa District U.S. Army Corps of Engineers is strictly prohibited.
These data are gathered electronically and, as presented, have not undergone any form of quality control. These data are not guaranteed to be valid or correct.
Go to home page.
Go to station list.
Go to home page.

Downstream station:


Previous Day
Next Day
Current Day
    
SHEF ID:       DUGK1     Little Walnut Rvr nr Bois d'Arc
STATION TYPE:  

               PRECIP     STAGE  RIV-FLOW   VOLTAGE  BAT-LOAD
                   in        ft       cfs      volt      volt
              Ccp-Rev   Ccp-Rev   Ccp-Rev   Ccp-Rev   Ccp-Rev
(US/Central)
05/22 00:00      0.00     25.69      ----     12.97     12.81
05/22 01:00      0.00     25.69      ----     12.89     12.81
05/22 02:00      0.00     25.69      ----     12.89     12.73
05/22 03:00      0.00     21.44      ----     12.81     12.73
05/22 04:00      0.00     20.79      ----     12.81     12.65
05/22 05:00      0.00     19.91      8119     12.81     12.65
05/22 06:00      0.00     19.09      7319     12.73     12.65
05/22 07:00      0.00     18.14      6454     12.73     12.65
05/22 08:00      0.00     17.18      5644     12.81     12.65
05/22 09:00      0.00     16.30      4958     13.68     13.29
05/22 10:00      0.00     15.61      4457     13.92     13.29
05/22 11:00      0.00     15.16      4147     13.53     13.29
05/22 12:00      0.00     14.78      3895     13.44     13.29
05/22 13:00      0.00     14.51      3722     13.44     13.37
05/22 14:00      0.00     14.34      3616     13.44     13.37
05/22 15:00      0.00     14.12      3480     13.68     13.29
05/22 16:00      0.00     14.01      3414     13.44     13.29
05/22 17:00      0.00     13.84      3313     14.08     13.29
05/22 18:00      0.00     13.74      3254     13.44     13.29
05/22 19:00      0.00     13.61      3179     13.29     13.13
05/22 20:00      0.00     13.49      3110     13.13     13.05
05/22 21:00      0.00     13.40      3059     13.05     12.89
05/22 22:00      0.00     13.28      2992     13.05     12.89
05/22 23:00      0.00     13.18      2937     12.97     12.81